Time;durP1;ratioP1;P1;durP2;ratioP2;P2;SDS_P1;SDS_P2;PMS_P1;PMS_P2;Temp;Humidity;BMP_temperature;BMP_pressure;BME280_temperature;BME280_humidity;BME280_pressure;Samples;Min_cycle;Max_cycle;Signal;HPM_P1;HPM_P2
2022/10/25 00:00:39;;;;;;;4.60;3.20;;;;;;;;;;5053540;28;20215;-82
2022/10/25 00:03:08;;;;;;;4.93;3.83;;;;;;;;;;5053517;28;20324;-82
2022/10/25 00:05:35;;;;;;;3.83;3.53;;;;;;;;;;5053026;28;20225;-81
2022/10/25 00:08:02;;;;;;;4.20;3.80;;;;;;;;;;5053828;28;20213;-81
2022/10/25 00:10:29;;;;;;;5.80;3.90;;;;;;;;;;5053248;28;20205;-82
2022/10/25 00:12:56;;;;;;;4.33;3.50;;;;;;;;;;5053435;28;20206;-82
2022/10/25 00:15:23;;;;;;;5.03;3.60;;;;;;;;;;5053434;28;20208;-82
2022/10/25 00:17:49;;;;;;;4.87;3.80;;;;;;;;;;5053536;28;20696;-81
2022/10/25 00:20:18;;;;;;;7.17;4.40;;;;;;;;;;5052986;28;20205;-81
2022/10/25 00:22:45;;;;;;;4.03;3.53;;;;;;;;;;5053161;28;20593;-82
2022/10/25 00:25:12;;;;;;;11.80;3.60;;;;;;;;;;5053277;28;20226;-82
2022/10/25 00:27:39;;;;;;;5.33;4.00;;;;;;;;;;5053234;28;20252;-82
2022/10/25 00:30:07;;;;;;;3.87;3.57;;;;;;;;;;5052746;28;20256;-82
2022/10/25 00:32:34;;;;;;;4.10;3.70;;;;;;;;;;5052602;28;20194;-81
2022/10/25 00:35:01;;;;;;;4.53;3.40;;;;;;;;;;5052727;28;20212;-82
2022/10/25 00:37:29;;;;;;;4.27;3.70;;;;;;;;;;5052986;28;20631;-82
2022/10/25 00:39:56;;;;;;;5.10;4.10;;;;;;;;;;5052915;28;20208;-82
2022/10/25 00:42:26;;;;;;;4.07;3.63;;;;;;;;;;5053071;28;20259;-81
2022/10/25 00:44:55;;;;;;;5.87;3.57;;;;;;;;;;5039260;28;20222;-82
2022/10/25 00:47:34;;;;;;;4.03;3.63;;;;;;;;;;5052333;28;20206;-81
2022/10/25 00:50:04;;;;;;;4.37;3.53;;;;;;;;;;5052051;28;20654;-82
2022/10/25 00:52:35;;;;;;;9.03;4.20;;;;;;;;;;5052772;28;20212;-82
2022/10/25 00:55:04;;;;;;;4.00;3.27;;;;;;;;;;5052278;28;20293;-82
2022/10/25 00:57:33;;;;;;;4.67;3.63;;;;;;;;;;5052877;28;20206;-81
2022/10/25 01:00:00;;;;;;;3.47;3.07;;;;;;;;;;5052024;28;20210;-82
2022/10/25 01:02:27;;;;;;;5.80;4.20;;;;;;;;;;5052733;28;20260;-82
2022/10/25 01:04:54;;;;;;;13.33;3.63;;;;;;;;;;5052384;28;20601;-82
2022/10/25 01:07:21;;;;;;;3.70;3.40;;;;;;;;;;5052451;28;20368;-81
2022/10/25 01:09:50;;;;;;;6.53;3.70;;;;;;;;;;5051386;28;20206;-82
2022/10/25 01:12:17;;;;;;;5.07;3.20;;;;;;;;;;5051966;28;20207;-82
2022/10/25 01:14:46;;;;;;;4.47;3.43;;;;;;;;;;5052322;28;20206;-81
2022/10/25 01:17:18;;;;;;;7.50;3.63;;;;;;;;;;5052314;28;20206;-82
2022/10/25 01:20:11;;;;;;;3.87;3.33;;;;;;;;;;5052356;28;20600;-82
2022/10/25 01:22:41;;;;;;;6.50;3.57;;;;;;;;;;5051949;28;20220;-82
2022/10/25 01:25:31;;;;;;;4.53;3.30;;;;;;;;;;5052275;28;20229;-82
2022/10/25 01:28:07;;;;;;;4.57;4.10;;;;;;;;;;5039899;28;20205;-82
2022/10/25 01:30:58;;;;;;;5.03;4.20;;;;;;;;;;5051604;28;20213;-83
2022/10/25 01:33:27;;;;;;;4.00;3.70;;;;;;;;;;5051634;28;20212;-82
2022/10/25 01:35:59;;;;;;;6.47;4.07;;;;;;;;;;5051449;28;20271;-82
2022/10/25 01:38:33;;;;;;;5.73;3.80;;;;;;;;;;5051993;28;20213;-82
2022/10/25 01:41:07;;;;;;;6.87;4.07;;;;;;;;;;5051760;28;20260;-82
2022/10/25 01:43:38;;;;;;;5.27;3.67;;;;;;;;;;5051591;28;20212;-82
2022/10/25 01:46:12;;;;;;;5.53;3.70;;;;;;;;;;5051452;28;20320;-82
2022/10/25 01:48:43;;;;;;;4.60;3.67;;;;;;;;;;5051658;28;20281;-82
2022/10/25 01:51:14;;;;;;;4.60;3.63;;;;;;;;;;5051715;28;20212;-82
2022/10/25 01:53:45;;;;;;;3.87;3.40;;;;;;;;;;5051712;28;20681;-82
2022/10/25 01:56:16;;;;;;;4.07;3.40;;;;;;;;;;5051115;28;20969;-82
2022/10/25 01:58:46;;;;;;;6.20;3.47;;;;;;;;;;5051518;28;20205;-83
2022/10/25 02:01:23;;;;;;;4.83;4.10;;;;;;;;;;5051609;28;20202;-83
2022/10/25 02:03:54;;;;;;;3.53;3.23;;;;;;;;;;5051447;28;20655;-82
2022/10/25 02:06:25;;;;;;;4.37;3.33;;;;;;;;;;5051579;28;20241;-81
2022/10/25 02:08:57;;;;;;;4.73;3.30;;;;;;;;;;5051580;28;20301;-82
2022/10/25 02:11:26;;;;;;;4.30;3.30;;;;;;;;;;5051592;28;20280;-81
2022/10/25 02:13:59;;;;;;;3.50;3.20;;;;;;;;;;5051125;28;20198;-81
2022/10/25 02:16:28;;;;;;;4.73;3.60;;;;;;;;;;5051278;28;20754;-82
2022/10/25 02:18:58;;;;;;;5.67;3.87;;;;;;;;;;5051166;28;20655;-82
2022/10/25 02:21:27;;;;;;;6.43;2.97;;;;;;;;;;5050455;28;20267;-82
2022/10/25 02:23:55;;;;;;;6.10;3.10;;;;;;;;;;5051246;28;20206;-81
2022/10/25 02:26:22;;;;;;;4.50;3.33;;;;;;;;;;5050865;28;20715;-82
2022/10/25 02:28:49;;;;;;;4.37;3.80;;;;;;;;;;5051115;28;20208;-83
2022/10/25 02:31:17;;;;;;;3.83;3.50;;;;;;;;;;5051153;28;20573;-83
2022/10/25 02:33:46;;;;;;;6.40;3.60;;;;;;;;;;5051210;28;20209;-83
2022/10/25 02:36:14;;;;;;;4.17;3.77;;;;;;;;;;5051325;28;20205;-83
2022/10/25 02:38:41;;;;;;;5.77;3.60;;;;;;;;;;5051428;28;20205;-83
2022/10/25 02:41:08;;;;;;;3.83;3.20;;;;;;;;;;5050879;28;20201;-83
2022/10/25 02:43:35;;;;;;;4.37;3.77;;;;;;;;;;5051534;28;20208;-83
2022/10/25 02:46:06;;;;;;;4.70;3.33;;;;;;;;;;5050819;28;20232;-83
2022/10/25 02:48:33;;;;;;;2.60;2.40;;;;;;;;;;5051288;28;20723;-83
2022/10/25 02:51:01;;;;;;;6.37;3.90;;;;;;;;;;5050292;28;20575;-82
2022/10/25 02:53:28;;;;;;;3.43;3.07;;;;;;;;;;5050628;28;20575;-82
2022/10/25 02:56:02;;;;;;;3.17;2.87;;;;;;;;;;5050603;28;20217;-82
2022/10/25 02:58:30;;;;;;;5.47;3.43;;;;;;;;;;5050504;28;20201;-82
2022/10/25 03:00:57;;;;;;;4.33;2.90;;;;;;;;;;5051272;28;20284;-83
2022/10/25 03:03:24;;;;;;;4.87;3.40;;;;;;;;;;5051845;28;20793;-83
2022/10/25 03:05:51;;;;;;;4.10;3.47;;;;;;;;;;5051293;28;20225;-83
2022/10/25 03:08:20;;;;;;;4.37;2.97;;;;;;;;;;5051067;28;20201;-84
2022/10/25 03:10:46;;;;;;;4.53;3.20;;;;;;;;;;5048712;28;20592;-83
2022/10/25 03:13:13;;;;;;;4.87;3.77;;;;;;;;;;5049609;28;20212;-82
2022/10/25 03:15:40;;;;;;;5.53;4.87;;;;;;;;;;5049783;28;20201;-82
2022/10/25 03:18:07;;;;;;;7.87;3.40;;;;;;;;;;5050133;28;20208;-83
2022/10/25 03:20:33;;;;;;;4.67;3.47;;;;;;;;;;5049802;28;20210;-83
2022/10/25 03:23:00;;;;;;;8.97;3.87;;;;;;;;;;5044135;28;20205;-77
2022/10/25 03:25:28;;;;;;;5.83;3.87;;;;;;;;;;5048265;28;20198;-77
2022/10/25 03:27:55;;;;;;;5.80;3.50;;;;;;;;;;5048504;28;20269;-77
2022/10/25 03:30:22;;;;;;;6.97;3.83;;;;;;;;;;5049873;28;20271;-80
2022/10/25 03:32:49;;;;;;;4.87;3.77;;;;;;;;;;5050639;28;20198;-80
2022/10/25 03:35:16;;;;;;;5.90;3.63;;;;;;;;;;5053581;28;20202;-80
2022/10/25 03:37:42;;;;;;;15.00;6.17;;;;;;;;;;5054214;28;20209;-80
2022/10/25 03:40:10;;;;;;;9.50;5.97;;;;;;;;;;5053792;28;20204;-80
2022/10/25 03:42:38;;;;;;;4.63;4.23;;;;;;;;;;5045894;28;20201;-81
2022/10/25 03:45:06;;;;;;;5.23;3.77;;;;;;;;;;5051456;28;20620;-80
2022/10/25 03:47:33;;;;;;;6.70;3.50;;;;;;;;;;5053066;28;20240;-80
2022/10/25 03:50:00;;;;;;;4.13;3.73;;;;;;;;;;5052651;28;20208;-80
2022/10/25 03:52:26;;;;;;;6.47;3.60;;;;;;;;;;5052867;28;20268;-80
2022/10/25 03:54:53;;;;;;;6.50;3.53;;;;;;;;;;5051588;28;20200;-80
2022/10/25 03:57:20;;;;;;;4.13;3.73;;;;;;;;;;5052261;28;20641;-81
2022/10/25 03:59:48;;;;;;;5.87;4.43;;;;;;;;;;5052702;28;20215;-81
2022/10/25 04:02:15;;;;;;;4.90;3.90;;;;;;;;;;5052832;28;20687;-81
2022/10/25 04:04:42;;;;;;;5.03;3.23;;;;;;;;;;5052682;28;20291;-80
2022/10/25 04:07:08;;;;;;;4.93;3.20;;;;;;;;;;5052945;28;20256;-81
2022/10/25 04:09:35;;;;;;;7.17;3.40;;;;;;;;;;5052177;28;20203;-81
2022/10/25 04:12:02;;;;;;;4.97;3.37;;;;;;;;;;5052326;28;20660;-81
2022/10/25 04:14:29;;;;;;;6.03;3.17;;;;;;;;;;5052651;28;20196;-80
2022/10/25 04:16:57;;;;;;;3.83;3.40;;;;;;;;;;5052783;28;20212;-81
2022/10/25 04:19:24;;;;;;;6.37;3.73;;;;;;;;;;5052968;28;20208;-80
2022/10/25 04:21:50;;;;;;;4.97;4.00;;;;;;;;;;5036691;28;20237;-80
2022/10/25 04:24:17;;;;;;;8.63;4.40;;;;;;;;;;5032587;28;20214;-80
2022/10/25 04:26:44;;;;;;;4.37;3.97;;;;;;;;;;5042060;28;20305;-80
2022/10/25 04:29:11;;;;;;;7.43;4.60;;;;;;;;;;5052686;28;20681;-80
2022/10/25 04:31:38;;;;;;;7.13;4.03;;;;;;;;;;5052683;28;20200;-81
2022/10/25 04:34:06;;;;;;;5.97;4.33;;;;;;;;;;5052182;28;20213;-80
2022/10/25 04:36:33;;;;;;;3.90;3.60;;;;;;;;;;5039368;28;20206;-80
2022/10/25 04:39:00;;;;;;;7.47;4.30;;;;;;;;;;5052557;28;20731;-80
2022/10/25 04:41:27;;;;;;;6.93;3.67;;;;;;;;;;5053166;28;20217;-80
2022/10/25 04:43:53;;;;;;;7.00;4.17;;;;;;;;;;5052628;28;20204;-80
2022/10/25 04:46:20;;;;;;;4.33;3.93;;;;;;;;;;5052468;28;20260;-80
2022/10/25 04:48:47;;;;;;;6.20;5.07;;;;;;;;;;5052427;28;20675;-80
2022/10/25 04:51:17;;;;;;;10.27;4.07;;;;;;;;;;5051998;28;20229;-80
2022/10/25 04:53:44;;;;;;;3.67;3.33;;;;;;;;;;5052654;28;20199;-80
2022/10/25 04:56:13;;;;;;;10.37;4.70;;;;;;;;;;5052080;28;20681;-80
2022/10/25 04:58:40;;;;;;;5.10;3.90;;;;;;;;;;5052086;28;20196;-80
2022/10/25 05:01:08;;;;;;;7.47;4.33;;;;;;;;;;5052287;28;20699;-81
2022/10/25 05:03:35;;;;;;;5.10;4.03;;;;;;;;;;5052046;28;20228;-81
2022/10/25 05:06:07;;;;;;;8.00;4.70;;;;;;;;;;5052203;28;20208;-81
2022/10/25 05:08:35;;;;;;;9.43;4.67;;;;;;;;;;5051995;28;20205;-81
2022/10/25 05:11:02;;;;;;;8.23;4.13;;;;;;;;;;5051944;28;20204;-81
2022/10/25 05:13:32;;;;;;;7.77;4.50;;;;;;;;;;5052240;28;20209;-81
2022/10/25 05:15:59;;;;;;;4.10;3.60;;;;;;;;;;5051815;28;20202;-81
2022/10/25 05:18:25;;;;;;;5.00;4.30;;;;;;;;;;5051712;28;20217;-81
2022/10/25 05:20:53;;;;;;;7.17;3.70;;;;;;;;;;5051750;28;20209;-81
2022/10/25 05:23:20;;;;;;;5.83;3.63;;;;;;;;;;5051813;28;20233;-81
2022/10/25 05:25:48;;;;;;;3.73;3.33;;;;;;;;;;5051703;28;20558;-81
2022/10/25 05:28:15;;;;;;;3.77;3.43;;;;;;;;;;5051530;28;20233;-81
2022/10/25 05:30:42;;;;;;;5.30;3.93;;;;;;;;;;5051304;28;20211;-81
2022/10/25 05:33:09;;;;;;;5.67;3.87;;;;;;;;;;5051923;28;20281;-81
2022/10/25 05:35:36;;;;;;;5.37;3.80;;;;;;;;;;5051630;28;20256;-81
2022/10/25 05:38:03;;;;;;;4.73;3.40;;;;;;;;;;5051445;28;20205;-81
2022/10/25 05:40:30;;;;;;;4.33;3.93;;;;;;;;;;5051724;28;20205;-81
2022/10/25 05:42:58;;;;;;;4.57;4.13;;;;;;;;;;5051417;28;20832;-81
2022/10/25 05:45:25;;;;;;;7.23;4.10;;;;;;;;;;5051520;28;20205;-81
2022/10/25 05:47:52;;;;;;;5.13;4.03;;;;;;;;;;5051027;28;20584;-81
2022/10/25 05:50:19;;;;;;;4.47;4.07;;;;;;;;;;5051332;28;20206;-81
2022/10/25 05:52:46;;;;;;;5.10;3.80;;;;;;;;;;5051582;28;20216;-81
2022/10/25 05:55:12;;;;;;;5.27;3.73;;;;;;;;;;5050894;28;20210;-81
2022/10/25 05:57:39;;;;;;;8.83;4.30;;;;;;;;;;5051082;28;20205;-81
2022/10/25 06:00:08;;;;;;;6.33;4.07;;;;;;;;;;5051285;28;20294;-81
2022/10/25 06:02:35;;;;;;;6.00;4.93;;;;;;;;;;5051135;28;21620;-81
2022/10/25 06:05:02;;;;;;;5.83;4.43;;;;;;;;;;5051247;28;20627;-80
2022/10/25 06:07:29;;;;;;;9.50;5.10;;;;;;;;;;5051886;28;20224;-81
2022/10/25 06:09:55;;;;;;;6.47;4.67;;;;;;;;;;5051445;28;20758;-80
2022/10/25 06:12:22;;;;;;;10.23;7.37;;;;;;;;;;5051102;28;20205;-79
2022/10/25 06:14:50;;;;;;;5.27;4.40;;;;;;;;;;5050892;28;20206;-79
2022/10/25 06:17:18;;;;;;;4.93;3.97;;;;;;;;;;5051326;28;20197;-79
2022/10/25 06:19:45;;;;;;;7.23;5.20;;;;;;;;;;5051199;28;20206;-79
2022/10/25 06:22:12;;;;;;;9.73;5.47;;;;;;;;;;5050854;28;20205;-79
2022/10/25 06:24:38;;;;;;;10.80;8.33;;;;;;;;;;5050570;28;20696;-79
2022/10/25 06:27:05;;;;;;;9.03;7.07;;;;;;;;;;5050402;28;20217;-79
2022/10/25 06:29:32;;;;;;;15.07;7.87;;;;;;;;;;5051188;28;20206;-79
2022/10/25 06:31:59;;;;;;;14.07;6.70;;;;;;;;;;5050758;28;20214;-79
2022/10/25 06:34:27;;;;;;;8.80;6.07;;;;;;;;;;5050333;28;20201;-80
2022/10/25 06:36:54;;;;;;;8.60;6.00;;;;;;;;;;5050579;28;20197;-80
2022/10/25 06:39:20;;;;;;;11.90;5.53;;;;;;;;;;5050535;28;20202;-79
2022/10/25 06:41:47;;;;;;;7.10;5.33;;;;;;;;;;5050387;28;20635;-78
2022/10/25 06:44:14;;;;;;;5.47;3.83;;;;;;;;;;5050229;28;20206;-81
2022/10/25 06:46:41;;;;;;;5.07;3.10;;;;;;;;;;5050750;28;20237;-80
2022/10/25 06:49:09;;;;;;;7.77;4.80;;;;;;;;;;5050386;28;20730;-79
2022/10/25 06:51:37;;;;;;;20.43;11.63;;;;;;;;;;5050602;28;20583;-79
2022/10/25 06:54:06;;;;;;;14.70;11.97;;;;;;;;;;5049883;28;20621;-79
2022/10/25 06:56:34;;;;;;;10.50;6.17;;;;;;;;;;5050444;28;20200;-79
2022/10/25 06:59:00;;;;;;;9.53;5.10;;;;;;;;;;5050715;28;20206;-79
2022/10/25 07:01:27;;;;;;;35.47;18.00;;;;;;;;;;5050542;28;20258;-79
2022/10/25 07:03:55;;;;;;;16.77;9.03;;;;;;;;;;5050407;28;20230;-80
2022/10/25 07:06:24;;;;;;;8.93;6.07;;;;;;;;;;5050602;28;20206;-80
2022/10/25 07:08:55;;;;;;;7.00;4.30;;;;;;;;;;5053958;28;21304;-79
2022/10/25 07:11:23;;;;;;;10.87;5.50;;;;;;;;;;5054269;28;20215;-80
2022/10/25 07:13:50;;;;;;;10.20;5.73;;;;;;;;;;5054175;28;20737;-80
2022/10/25 07:16:19;;;;;;;8.50;4.60;;;;;;;;;;5054761;28;20200;-80
2022/10/25 07:18:46;;;;;;;9.33;4.40;;;;;;;;;;5054143;28;20259;-79
2022/10/25 07:21:15;;;;;;;9.60;4.47;;;;;;;;;;5053876;28;20212;-80
2022/10/25 07:23:42;;;;;;;11.67;3.33;;;;;;;;;;5054460;28;20274;-79
2022/10/25 07:26:12;;;;;;;9.80;3.60;;;;;;;;;;5054153;28;20205;-79
2022/10/25 07:28:39;;;;;;;6.00;3.40;;;;;;;;;;5054493;28;20256;-79
2022/10/25 07:31:06;;;;;;;5.23;3.23;;;;;;;;;;5053597;28;20206;-79
2022/10/25 07:33:33;;;;;;;5.73;3.30;;;;;;;;;;5054142;28;20742;-80
2022/10/25 07:36:00;;;;;;;5.93;3.10;;;;;;;;;;5053816;28;20206;-80
2022/10/25 07:38:27;;;;;;;6.17;3.20;;;;;;;;;;5054125;28;20202;-80
2022/10/25 07:40:57;;;;;;;3.53;2.20;;;;;;;;;;5053427;28;20218;-80
2022/10/25 07:43:25;;;;;;;5.20;2.80;;;;;;;;;;5053938;28;20684;-80
2022/10/25 07:45:52;;;;;;;6.50;2.77;;;;;;;;;;5053899;28;20202;-80
2022/10/25 07:48:19;;;;;;;5.50;2.70;;;;;;;;;;5053128;28;20233;-80
2022/10/25 07:50:46;;;;;;;8.17;3.10;;;;;;;;;;5053518;28;20197;-80
2022/10/25 07:53:12;;;;;;;6.10;2.60;;;;;;;;;;5053893;28;20202;-80
2022/10/25 07:55:39;;;;;;;8.13;3.57;;;;;;;;;;5053811;28;20206;-80
2022/10/25 07:58:09;;;;;;;2.40;2.20;;;;;;;;;;5053730;28;20268;-80
2022/10/25 08:00:38;;;;;;;8.33;3.30;;;;;;;;;;5039513;28;20202;-80
2022/10/25 08:03:05;;;;;;;4.50;2.90;;;;;;;;;;5053366;28;20743;-80
2022/10/25 08:05:32;;;;;;;5.07;2.30;;;;;;;;;;5053175;28;20197;-80
2022/10/25 08:07:58;;;;;;;2.50;2.23;;;;;;;;;;5053564;28;20237;-80
2022/10/25 08:10:25;;;;;;;8.30;5.87;;;;;;;;;;5052950;28;20202;-80
2022/10/25 08:12:54;;;;;;;4.67;3.97;;;;;;;;;;5053594;28;20194;-80
2022/10/25 08:15:21;;;;;;;4.37;3.17;;;;;;;;;;5053023;28;20202;-80
2022/10/25 08:17:57;;;;;;;5.40;3.60;;;;;;;;;;5052948;28;20626;-80
2022/10/25 08:20:24;;;;;;;7.10;3.50;;;;;;;;;;5052648;28;20209;-80
2022/10/25 08:22:50;;;;;;;4.80;3.07;;;;;;;;;;5053431;28;20194;-80
2022/10/25 08:25:17;;;;;;;8.33;5.20;;;;;;;;;;5053179;28;20202;-80
2022/10/25 08:27:44;;;;;;;5.20;4.20;;;;;;;;;;5052835;28;20248;-80
2022/10/25 08:30:11;;;;;;;3.67;3.33;;;;;;;;;;5052932;28;20202;-80
2022/10/25 08:32:38;;;;;;;6.53;3.80;;;;;;;;;;5053106;28;20634;-80
2022/10/25 08:35:07;;;;;;;7.60;3.83;;;;;;;;;;5053016;28;20210;-80
2022/10/25 08:37:34;;;;;;;5.90;4.33;;;;;;;;;;5053022;28;20209;-80
2022/10/25 08:40:00;;;;;;;5.50;4.57;;;;;;;;;;5052703;28;20206;-80
2022/10/25 08:42:34;;;;;;;6.07;4.90;;;;;;;;;;5052384;28;20206;-80
2022/10/25 08:45:04;;;;;;;6.17;4.40;;;;;;;;;;5052914;28;20684;-80
2022/10/25 08:47:33;;;;;;;6.90;5.07;;;;;;;;;;5052517;28;20226;-80
2022/10/25 08:50:03;;;;;;;13.93;6.43;;;;;;;;;;5052887;28;20206;-80
2022/10/25 08:52:34;;;;;;;12.17;4.77;;;;;;;;;;5052688;28;20726;-80
2022/10/25 08:55:03;;;;;;;5.60;4.60;;;;;;;;;;5052262;28;20588;-80
2022/10/25 08:57:32;;;;;;;8.27;5.27;;;;;;;;;;5052247;28;20217;-80
2022/10/25 09:00:06;;;;;;;4.87;3.70;;;;;;;;;;5052268;28;20214;-80
2022/10/25 09:02:37;;;;;;;7.53;4.30;;;;;;;;;;5052442;28;20688;-80
2022/10/25 09:05:04;;;;;;;5.67;4.33;;;;;;;;;;5051976;28;20213;-80
2022/10/25 09:07:57;;;;;;;7.73;5.50;;;;;;;;;;5051963;28;20230;-80
2022/10/25 09:10:33;;;;;;;8.50;5.07;;;;;;;;;;5051946;28;20221;-80
2022/10/25 09:13:03;;;;;;;5.10;4.60;;;;;;;;;;5052393;28;20198;-80
2022/10/25 09:15:43;;;;;;;7.17;5.30;;;;;;;;;;5051415;28;20209;-80
2022/10/25 09:18:16;;;;;;;7.07;5.43;;;;;;;;;;5052282;28;20202;-80
2022/10/25 09:20:48;;;;;;;9.47;6.20;;;;;;;;;;5052201;28;20673;-80
2022/10/25 09:23:24;;;;;;;10.07;5.93;;;;;;;;;;5052287;28;20201;-80
2022/10/25 09:25:54;;;;;;;10.53;6.50;;;;;;;;;;5051765;28;20281;-80
2022/10/25 09:28:25;;;;;;;15.90;7.27;;;;;;;;;;5051236;28;20241;-80
2022/10/25 09:30:55;;;;;;;12.53;6.23;;;;;;;;;;5050897;28;20198;-80
2022/10/25 09:33:29;;;;;;;13.47;8.93;;;;;;;;;;5051857;28;20247;-80
2022/10/25 09:35:57;;;;;;;8.97;6.50;;;;;;;;;;5051616;28;20212;-80
2022/10/25 09:38:27;;;;;;;15.27;6.80;;;;;;;;;;5051689;28;20213;-80
2022/10/25 09:41:02;;;;;;;14.70;7.67;;;;;;;;;;5051322;28;20307;-81
2022/10/25 09:43:36;;;;;;;10.83;6.07;;;;;;;;;;5051533;28;20212;-80
2022/10/25 09:46:06;;;;;;;11.60;8.17;;;;;;;;;;5051423;28;20707;-80
2022/10/25 09:48:38;;;;;;;8.40;6.20;;;;;;;;;;5050983;28;20226;-80
2022/10/25 09:51:13;;;;;;;8.60;6.37;;;;;;;;;;5051771;28;20212;-80
2022/10/25 09:53:44;;;;;;;11.47;8.50;;;;;;;;;;5051409;28;20631;-80
2022/10/25 09:56:11;;;;;;;11.60;6.57;;;;;;;;;;5051676;28;20267;-80
2022/10/25 09:58:40;;;;;;;14.40;7.30;;;;;;;;;;5051581;28;20642;-80
2022/10/25 10:01:11;;;;;;;10.40;7.20;;;;;;;;;;5050846;28;20202;-80
2022/10/25 10:03:38;;;;;;;7.83;6.20;;;;;;;;;;5051403;28;20581;-80
2022/10/25 10:06:17;;;;;;;19.40;7.37;;;;;;;;;;5050568;28;20210;-80
2022/10/25 10:08:49;;;;;;;9.00;6.00;;;;;;;;;;5050852;28;20287;-80
2022/10/25 10:11:17;;;;;;;10.47;7.17;;;;;;;;;;5050876;28;20570;-80
2022/10/25 10:13:47;;;;;;;10.00;6.97;;;;;;;;;;5051183;28;20201;-81
2022/10/25 10:16:20;;;;;;;11.20;6.60;;;;;;;;;;5050896;28;20206;-81
2022/10/25 10:18:47;;;;;;;13.43;7.10;;;;;;;;;;5051261;28;20288;-80
2022/10/25 10:21:17;;;;;;;7.17;5.90;;;;;;;;;;5051186;28;20213;-81
2022/10/25 10:23:54;;;;;;;15.60;8.30;;;;;;;;;;5050953;28;20260;-81
2022/10/25 10:26:24;;;;;;;13.90;9.20;;;;;;;;;;5050900;28;20566;-81
2022/10/25 10:28:52;;;;;;;11.47;6.67;;;;;;;;;;5050123;28;20731;-81
2022/10/25 10:31:19;;;;;;;12.37;6.83;;;;;;;;;;5050593;28;20749;-81
2022/10/25 10:33:50;;;;;;;9.73;6.60;;;;;;;;;;5050767;28;20209;-81
2022/10/25 10:36:22;;;;;;;12.23;6.77;;;;;;;;;;5050706;28;20236;-81
2022/10/25 10:38:48;;;;;;;13.90;7.70;;;;;;;;;;5051123;28;20658;-81
2022/10/25 10:41:23;;;;;;;8.80;7.77;;;;;;;;;;5049891;28;20205;-81
2022/10/25 10:43:50;;;;;;;14.33;8.63;;;;;;;;;;5050449;28;20735;-81
2022/10/25 10:46:20;;;;;;;10.53;6.77;;;;;;;;;;5050464;28;20647;-81
2022/10/25 10:48:53;;;;;;;10.50;6.80;;;;;;;;;;5050796;28;20222;-80
2022/10/25 10:51:21;;;;;;;9.77;7.60;;;;;;;;;;5050291;28;20684;-80
2022/10/25 10:53:47;;;;;;;9.27;7.33;;;;;;;;;;5036623;28;20589;-81
2022/10/25 10:56:21;;;;;;;10.07;6.83;;;;;;;;;;5050164;28;20279;-80
2022/10/25 10:58:49;;;;;;;8.67;6.40;;;;;;;;;;5050209;28;20672;-80
2022/10/25 11:01:18;;;;;;;7.53;6.83;;;;;;;;;;5050456;28;20646;-81
2022/10/25 11:03:48;;;;;;;9.20;6.77;;;;;;;;;;5050639;28;20233;-81
2022/10/25 11:06:18;;;;;;;7.67;6.93;;;;;;;;;;5050141;28;20209;-80
2022/10/25 11:08:47;;;;;;;13.23;7.87;;;;;;;;;;5050683;28;20249;-81
2022/10/25 11:11:20;;;;;;;11.57;6.80;;;;;;;;;;5050381;28;20632;-81
2022/10/25 11:13:52;;;;;;;7.33;6.40;;;;;;;;;;5050528;28;20274;-81
2022/10/25 11:16:49;;;;;;;13.37;7.33;;;;;;;;;;5049895;28;20589;-80
2022/10/25 11:20:00;;;;;;;11.53;7.50;;;;;;;;;;5034623;28;20231;-80
2022/10/25 11:22:44;;;;;;;9.57;6.80;;;;;;;;;;5023683;28;20194;-80
2022/10/25 11:25:24;;;;;;;9.50;7.03;;;;;;;;;;5049752;28;20206;-81
2022/10/25 11:28:01;;;;;;;9.83;7.83;;;;;;;;;;5050164;28;20676;-80
2022/10/25 11:30:32;;;;;;;11.50;7.60;;;;;;;;;;5050108;28;20198;-80
2022/10/25 11:33:20;;;;;;;13.63;9.37;;;;;;;;;;5050282;28;20593;-80
2022/10/25 11:36:08;;;;;;;13.80;7.67;;;;;;;;;;5049486;28;20355;-81
2022/10/25 11:38:52;;;;;;;9.70;6.73;;;;;;;;;;5050283;28;20206;-81
2022/10/25 11:41:29;;;;;;;13.80;7.03;;;;;;;;;;5050031;28;20202;-81
2022/10/25 11:44:04;;;;;;;8.87;6.53;;;;;;;;;;5049694;28;20202;-81
2022/10/25 11:46:35;;;;;;;7.03;6.20;;;;;;;;;;5035887;28;20205;-80
2022/10/25 11:49:21;;;;;;;10.73;7.97;;;;;;;;;;5050071;28;20232;-81
2022/10/25 11:51:56;;;;;;;7.97;6.67;;;;;;;;;;5050155;28;20197;-81
2022/10/25 11:54:30;;;;;;;7.53;6.77;;;;;;;;;;5050980;28;20202;-81
2022/10/25 11:57:06;;;;;;;9.80;6.10;;;;;;;;;;5053729;28;20240;-81
2022/10/25 11:59:42;;;;;;;9.20;7.20;;;;;;;;;;5053498;28;20202;-81
2022/10/25 12:02:34;;;;;;;10.10;7.43;;;;;;;;;;5054034;28;20210;-81
2022/10/25 12:05:13;;;;;;;9.37;7.37;;;;;;;;;;5053301;28;20267;-81
2022/10/25 12:07:44;;;;;;;8.13;7.07;;;;;;;;;;5053650;28;20777;-81
2022/10/25 12:10:28;;;;;;;11.13;6.27;;;;;;;;;;5053201;28;20280;-81
2022/10/25 12:12:58;;;;;;;12.03;6.83;;;;;;;;;;5053251;28;20210;-81
2022/10/25 12:15:34;;;;;;;7.10;6.10;;;;;;;;;;5053253;28;20202;-81
2022/10/25 12:18:01;;;;;;;12.50;6.93;;;;;;;;;;5052786;28;20206;-81
2022/10/25 12:20:30;;;;;;;8.20;6.87;;;;;;;;;;5052938;28;20570;-81
2022/10/25 12:22:58;;;;;;;11.48;7.43;;;;;;;;;;5053271;28;20198;-81
2022/10/25 12:25:26;;;;;;;7.45;6.70;;;;;;;;;;5052862;28;20258;-81
2022/10/25 12:28:02;;;;;;;7.93;6.13;;;;;;;;;;5053156;28;20209;-81
2022/10/25 12:30:31;;;;;;;9.60;6.43;;;;;;;;;;5052641;28;20221;-81
2022/10/25 12:33:04;;;;;;;8.00;6.68;;;;;;;;;;5053486;28;20209;-81
2022/10/25 12:35:35;;;;;;;10.50;6.03;;;;;;;;;;5052844;28;20209;-81
2022/10/25 12:38:05;;;;;;;16.83;6.90;;;;;;;;;;5039132;28;20202;-80
2022/10/25 12:40:37;;;;;;;8.50;7.25;;;;;;;;;;5052719;28;20208;-81
2022/10/25 12:43:11;;;;;;;7.93;6.97;;;;;;;;;;5052961;28;20632;-81
2022/10/25 12:46:22;;;;;;;10.77;6.68;;;;;;;;;;5052888;28;20213;-81
2022/10/25 12:49:11;;;;;;;12.40;7.03;;;;;;;;;;4998424;28;20219;-81
2022/10/25 12:51:48;;;;;;;8.13;6.32;;;;;;;;;;5048579;28;20209;-82
2022/10/25 12:55:01;;;;;;;10.77;6.30;;;;;;;;;;5052379;28;20202;-81
2022/10/25 12:57:33;;;;;;;8.10;6.47;;;;;;;;;;4998917;28;20211;-81
2022/10/25 13:00:11;;;;;;;11.57;7.28;;;;;;;;;;5043637;28;20255;-81
2022/10/25 13:03:06;;;;;;;12.27;6.43;;;;;;;;;;5052576;28;20598;-81
2022/10/25 13:06:06;;;;;;;11.87;6.70;;;;;;;;;;5052049;28;20209;-81
2022/10/25 13:08:33;;;;;;;10.02;7.53;;;;;;;;;;5044128;28;20210;-81
2022/10/25 13:11:01;;;;;;;8.75;6.85;;;;;;;;;;5052241;28;20201;-81
2022/10/25 13:13:32;;;;;;;8.67;6.40;;;;;;;;;;5051778;28;20202;-81
2022/10/25 13:16:00;;;;;;;8.87;6.70;;;;;;;;;;5051934;28;20206;-81
2022/10/25 13:18:39;;;;;;;9.10;6.05;;;;;;;;;;5052669;28;20209;-81
2022/10/25 13:21:08;;;;;;;11.70;8.07;;;;;;;;;;5051844;28;20210;-81
2022/10/25 13:23:59;;;;;;;15.25;8.15;;;;;;;;;;5052057;28;20202;-81
2022/10/25 13:26:34;;;;;;;14.55;8.70;;;;;;;;;;5051817;28;20562;-81
2022/10/25 13:29:02;;;;;;;8.23;7.40;;;;;;;;;;5051501;28;20287;-81
2022/10/25 13:31:47;;;;;;;7.50;6.50;;;;;;;;;;5051671;28;20213;-81
2022/10/25 13:34:35;;;;;;;7.27;6.57;;;;;;;;;;5051974;28;20271;-81
2022/10/25 13:37:04;;;;;;;8.97;6.63;;;;;;;;;;5051874;28;20197;-81
2022/10/25 13:39:33;;;;;;;31.50;23.53;;;;;;;;;;5051131;28;20259;-81
2022/10/25 13:42:09;;;;;;;14.47;9.07;;;;;;;;;;5051748;28;20747;-81
2022/10/25 13:44:37;;;;;;;11.03;6.83;;;;;;;;;;5051479;28;20225;-81
2022/10/25 13:47:05;;;;;;;10.00;6.63;;;;;;;;;;5051095;28;20197;-81
2022/10/25 13:49:35;;;;;;;11.57;7.27;;;;;;;;;;5051452;28;20226;-81
2022/10/25 13:52:04;;;;;;;12.03;6.57;;;;;;;;;;5051623;28;20202;-81
2022/10/25 13:54:37;;;;;;;11.17;7.03;;;;;;;;;;5051521;28;20247;-81
2022/10/25 13:57:04;;;;;;;8.27;6.37;;;;;;;;;;5051289;28;20206;-81
2022/10/25 13:59:36;;;;;;;7.43;6.47;;;;;;;;;;5051194;28;20197;-81
2022/10/25 14:02:17;;;;;;;9.30;6.70;;;;;;;;;;5051407;28;20571;-81
2022/10/25 14:04:45;;;;;;;9.13;6.27;;;;;;;;;;5051036;28;20635;-81
2022/10/25 14:07:43;;;;;;;9.23;7.03;;;;;;;;;;5051101;28;20572;-81
2022/10/25 14:10:29;;;;;;;8.47;6.13;;;;;;;;;;5051054;28;20313;-81
2022/10/25 14:13:07;;;;;;;10.73;6.67;;;;;;;;;;5051176;28;20205;-82
2022/10/25 14:15:39;;;;;;;14.23;9.27;;;;;;;;;;5050995;28;20739;-81
2022/10/25 14:18:08;;;;;;;6.77;5.93;;;;;;;;;;5050775;28;20233;-81
2022/10/25 14:20:37;;;;;;;12.40;7.10;;;;;;;;;;5050908;28;20285;-81
2022/10/25 14:23:06;;;;;;;14.73;8.30;;;;;;;;;;5051232;28;20281;-81
2022/10/25 14:25:36;;;;;;;11.57;7.40;;;;;;;;;;5050823;28;20217;-81
2022/10/25 14:28:14;;;;;;;9.20;7.70;;;;;;;;;;5050984;28;20624;-84
2022/10/25 14:30:43;;;;;;;8.80;7.23;;;;;;;;;;5043013;28;20326;-79
2022/10/25 14:33:25;;;;;;;9.40;7.67;;;;;;;;;;5050049;28;20197;-78
2022/10/25 14:35:57;;;;;;;9.20;7.07;;;;;;;;;;5042816;28;20203;-78
2022/10/25 14:38:25;;;;;;;11.07;7.53;;;;;;;;;;5029915;28;20202;-78
2022/10/25 14:40:54;;;;;;;11.50;9.83;;;;;;;;;;5029430;28;20272;-78
2022/10/25 14:43:30;;;;;;;16.93;10.30;;;;;;;;;;5031834;28;20205;-78
2022/10/25 14:46:03;;;;;;;17.30;9.47;;;;;;;;;;5048243;28;20282;-78
2022/10/25 14:48:29;;;;;;;11.07;8.57;;;;;;;;;;5049931;28;20210;-79
2022/10/25 14:51:00;;;;;;;12.33;10.07;;;;;;;;;;5042431;28;20280;-82
2022/10/25 14:53:28;;;;;;;27.40;18.17;;;;;;;;;;5044076;28;20677;-82
2022/10/25 14:55:56;;;;;;;28.87;19.53;;;;;;;;;;5035970;28;20689;-82
2022/10/25 14:58:24;;;;;;;19.97;15.60;;;;;;;;;;5049395;28;20202;-82